Time;durP1;ratioP1;P1;durP2;ratioP2;P2;SDS_P1;SDS_P2;PMS_P1;PMS_P2;Temp;Humidity;BMP_temperature;BMP_pressure;BME280_temperature;BME280_humidity;BME280_pressure;Samples;Min_cycle;Max_cycle;Signal;HPM_P1;HPM_P2
2023/12/09 00:01:29;;;;;;;7.78;2.95;;;;;;;22.83;33.69;100903.91;4067700;29;20139;-58
2023/12/09 00:03:31;;;;;;;;;;;;;;;22.84;33.47;100892.19;4067402;29;20108;-58
2023/12/09 00:05:32;;;;;;;7.43;2.47;;;;;;;22.84;33.61;100887.66;4067296;29;19923;-58
2023/12/09 00:07:34;;;;;;;;;;;;;;;22.87;33.48;100878.50;4067579;29;20048;-59
2023/12/09 00:09:36;;;;;;;7.22;2.80;;;;;;;22.87;33.63;100878.50;4067581;29;19934;-58
2023/12/09 00:11:37;;;;;;;;;;;;;;;22.86;33.36;100876.84;4067718;29;20465;-58
2023/12/09 00:13:39;;;;;;;7.10;2.70;;;;;;;22.84;33.23;100882.31;4067514;29;19922;-59
2023/12/09 00:15:40;;;;;;;6.57;2.70;;;;;;;22.85;33.56;100880.50;4067469;29;20151;-58
2023/12/09 00:17:43;;;;;;;7.80;2.72;;;;;;;22.82;33.37;100868.19;4067005;29;20074;-56
2023/12/09 00:19:44;;;;;;;7.13;2.58;;;;;;;22.82;33.38;100868.19;4067324;29;20495;-58
2023/12/09 00:21:46;;;;;;;8.48;2.75;;;;;;;22.82;33.54;100873.56;4050586;29;20053;-58
2023/12/09 00:23:48;;;;;;;7.72;2.75;;;;;;;22.82;33.82;100878.94;4067673;29;20416;-58
2023/12/09 00:25:50;;;;;;;7.10;2.65;;;;;;;22.87;33.19;100879.38;4067263;29;20058;-58
2023/12/09 00:27:51;;;;;;;6.40;2.40;;;;;;;22.90;33.42;100879.09;4067426;29;20511;-58
2023/12/09 00:29:53;;;;;;;6.50;2.78;;;;;;;22.89;33.24;100874.75;4067172;29;20048;-58
2023/12/09 00:31:55;;;;;;;;;;;;;;;22.88;33.34;100878.41;4067336;29;20052;-58
2023/12/09 00:33:56;;;;;;;7.32;2.72;;;;;;;22.87;33.33;100874.00;4067361;29;20318;-58
2023/12/09 00:35:58;;;;;;;6.65;2.90;;;;;;;22.88;33.67;100893.63;4067240;29;20123;-58
2023/12/09 00:38:00;;;;;;;8.48;3.13;;;;;;;22.86;33.11;100884.88;4067186;29;20044;-58
2023/12/09 00:40:01;;;;;;;8.38;2.90;;;;;;;22.85;33.12;100877.81;4067327;29;20050;-58
2023/12/09 00:42:03;;;;;;;6.78;2.50;;;;;;;22.84;33.20;100898.41;4067245;29;20071;-58
2023/12/09 00:44:05;;;;;;;7.43;3.00;;;;;;;22.84;33.37;100889.50;4067273;29;20460;-58
2023/12/09 00:46:06;;;;;;;8.50;2.90;;;;;;;22.86;33.44;100898.28;4066960;29;20059;-58
2023/12/09 00:48:08;;;;;;;7.47;2.67;;;;;;;22.88;33.40;100893.63;4067339;29;20056;-58
2023/12/09 00:50:10;;;;;;;;;;;;;;;22.89;33.34;100895.34;4067439;29;20048;-58
2023/12/09 00:52:11;;;;;;;7.05;2.88;;;;;;;22.88;33.21;100882.91;4067226;29;20022;-58
2023/12/09 00:54:13;;;;;;;8.52;2.63;;;;;;;22.89;33.39;100895.34;4067335;29;20115;-57
2023/12/09 00:56:15;;;;;;;;;;;;;;;22.87;33.25;100887.44;4067734;29;20132;-57
2023/12/09 00:58:35;;;;;;;7.28;2.85;;;;;;;22.85;33.67;100891.22;4066868;29;19938;-57
2023/12/09 01:00:37;;;;;;;6.55;2.58;;;;;;;22.85;33.71;100884.00;4066915;29;20059;-58
2023/12/09 01:02:39;;;;;;;5.90;2.42;;;;;;;22.84;33.30;100889.50;4066960;29;20052;-58
2023/12/09 01:04:41;;;;;;;7.03;2.70;;;;;;;22.82;33.49;100873.56;4067150;29;20048;-58
2023/12/09 01:06:43;;;;;;;9.00;3.20;;;;;;;22.84;33.55;100876.94;4066972;29;20476;-58
2023/12/09 01:08:44;;;;;;;6.93;2.83;;;;;;;22.87;33.38;100886.56;4067061;29;20052;-58
2023/12/09 01:10:46;;;;;;;8.82;2.95;;;;;;;22.87;33.50;100873.16;4067098;29;20044;-58
2023/12/09 01:12:47;;;;;;;7.10;2.65;;;;;;;22.91;33.46;100866.56;4067067;29;20056;-58
2023/12/09 01:14:49;;;;;;;6.60;2.60;;;;;;;22.92;33.40;100871.78;4066843;29;20165;-58
2023/12/09 01:16:51;;;;;;;;;;;;;;;22.91;33.11;100870.06;4067415;29;20052;-57
2023/12/09 01:18:52;;;;;;;7.95;2.80;;;;;;;22.88;33.43;100886.44;4067715;29;20370;-58
2023/12/09 01:20:54;;;;;;;6.45;3.03;;;;;;;22.89;33.15;100881.91;4053226;29;20128;-58
2023/12/09 01:22:56;;;;;;;7.03;2.90;;;;;;;22.78;33.25;100870.28;4070016;29;20056;-59
2023/12/09 01:24:57;;;;;;;8.18;2.58;;;;;;;22.87;33.19;100881.19;4070044;29;20048;-58
2023/12/09 01:26:59;;;;;;;8.38;3.00;;;;;;;22.86;33.31;100884.88;4069740;29;20052;-58
2023/12/09 01:29:03;;;;;;;7.45;2.70;;;;;;;22.86;33.47;100883.03;4070007;29;20439;-58
2023/12/09 01:31:05;;;;;;;7.63;2.72;;;;;;;22.88;33.51;100878.41;4069388;29;20524;-58
2023/12/09 01:33:07;;;;;;;7.82;3.10;;;;;;;22.91;33.28;100878.13;4070109;29;20261;-58
2023/12/09 01:35:10;;;;;;;8.02;2.63;;;;;;;22.92;33.32;100871.78;4069793;29;20066;-58
2023/12/09 01:37:11;;;;;;;6.40;2.75;;;;;;;22.92;33.17;100866.41;4069653;29;20104;-58
2023/12/09 01:39:13;;;;;;;;;;;;;;;22.92;33.19;100874.47;4070167;29;20063;-59
2023/12/09 01:41:15;;;;;;;6.15;2.47;;;;;;;22.90;33.44;100865.69;4069775;29;19930;-58
2023/12/09 01:43:16;;;;;;;6.38;2.60;;;;;;;22.89;33.39;100855.97;4069742;29;20055;-58
2023/12/09 01:45:18;;;;;;;7.53;2.90;;;;;;;22.90;33.06;100864.84;4069416;29;20056;-58
2023/12/09 01:47:19;;;;;;;7.97;2.83;;;;;;;22.89;32.93;100861.34;4069384;29;20044;-59
2023/12/09 01:49:21;;;;;;;7.47;2.63;;;;;;;22.89;33.03;100866.69;4069741;29;20392;-58
2023/12/09 01:51:23;;;;;;;7.03;2.65;;;;;;;22.88;33.36;100858.75;4069444;29;20055;-58
2023/12/09 01:53:25;;;;;;;7.05;2.58;;;;;;;22.88;33.23;100851.59;4069452;29;20056;-58
2023/12/09 01:55:27;;;;;;;7.22;2.60;;;;;;;22.90;33.02;100854.13;4069890;29;20071;-58
2023/12/09 01:57:29;;;;;;;6.78;2.50;;;;;;;22.92;33.03;100853.00;4069448;29;20188;-58
2023/12/09 01:59:31;;;;;;;7.93;2.80;;;;;;;22.92;33.45;100855.69;4068866;29;20060;-57
2023/12/09 02:01:35;;;;;;;6.72;2.38;;;;;;;22.91;33.26;100853.97;4069481;29;20052;-58
2023/12/09 02:03:37;;;;;;;7.70;2.53;;;;;;;22.92;33.16;100855.69;4069320;29;20048;-57
2023/12/09 02:05:40;;;;;;;8.02;2.50;;;;;;;22.88;33.20;100840.84;4069368;29;20058;-58
2023/12/09 02:07:42;;;;;;;8.45;2.70;;;;;;;22.91;33.23;100847.78;4069218;29;20428;-58
2023/12/09 02:09:44;;;;;;;7.47;2.50;;;;;;;22.90;33.15;100843.41;4069245;29;20080;-58
2023/12/09 02:12:05;;;;;;;7.38;2.47;;;;;;;22.90;33.26;100838.88;4069210;29;20423;-58
2023/12/09 02:14:13;;;;;;;7.23;2.60;;;;;;;22.86;33.46;100820.53;4068898;29;20075;-58
2023/12/09 02:16:20;;;;;;;7.25;2.53;;;;;;;22.89;32.97;100807.69;4068825;29;20052;-58
2023/12/09 02:18:23;;;;;;;6.43;2.53;;;;;;;22.89;33.25;100818.44;4069260;29;20059;-58
2023/12/09 02:20:26;;;;;;;7.25;2.83;;;;;;;22.92;33.25;100812.78;4068994;29;20047;-58
2023/12/09 02:22:28;;;;;;;6.97;2.67;;;;;;;22.94;32.96;100808.13;4036889;29;20072;-58
2023/12/09 02:24:31;;;;;;;8.43;2.72;;;;;;;22.94;33.13;100804.59;4068885;29;20056;-59
2023/12/09 02:26:32;;;;;;;6.50;2.33;;;;;;;22.94;33.18;100800.09;4068999;29;20052;-58
2023/12/09 02:28:39;;;;;;;7.38;2.55;;;;;;;22.93;33.16;100800.22;4068788;29;20055;-58
2023/12/09 02:31:06;;;;;;;5.78;2.40;;;;;;;22.94;33.19;100792.06;4068300;29;20051;-58
2023/12/09 02:33:09;;;;;;;8.45;2.80;;;;;;;22.89;33.16;100775.53;4068921;29;20083;-57
2023/12/09 02:35:14;;;;;;;7.10;2.28;;;;;;;22.86;32.93;100773.09;4068969;29;20142;-59
2023/12/09 02:37:18;;;;;;;6.63;2.25;;;;;;;22.89;33.00;100763.94;4068724;29;20044;-58
2023/12/09 02:39:20;;;;;;;6.25;2.53;;;;;;;22.90;33.45;100771.00;4068797;29;20119;-58
2023/12/09 02:41:22;;;;;;;7.75;2.53;;;;;;;22.92;32.98;100769.88;4068822;29;20056;-57
2023/12/09 02:43:24;;;;;;;7.28;2.67;;;;;;;22.94;33.25;100773.28;4068582;29;20059;-57
2023/12/09 02:45:26;;;;;;;;;;;;;;;22.93;33.13;100765.34;4069308;29;20063;-57
2023/12/09 02:47:27;;;;;;;8.07;2.70;;;;;;;22.90;33.04;100755.72;4069094;29;20180;-57
2023/12/09 02:49:29;;;;;;;;;;;;;;;22.93;32.91;100759.97;4069012;29;20059;-58
2023/12/09 02:51:31;;;;;;;6.97;2.67;;;;;;;22.89;33.24;100748.69;4068637;29;19923;-57
2023/12/09 02:53:33;;;;;;;;;;;;;;;22.89;32.94;100753.19;4068924;29;20078;-58
2023/12/09 02:55:34;;;;;;;6.80;2.78;;;;;;;22.86;33.03;100762.38;4068592;29;19959;-58
2023/12/09 02:57:36;;;;;;;7.22;2.35;;;;;;;22.87;33.27;100761.38;4068217;29;20108;-59
2023/12/09 02:59:38;;;;;;;6.57;2.30;;;;;;;22.88;32.98;100760.41;4051423;29;20057;-58
2023/12/09 03:01:39;;;;;;;6.95;2.55;;;;;;;22.89;32.97;100753.19;4068487;29;20051;-58
2023/12/09 03:03:41;;;;;;;5.80;2.30;;;;;;;22.91;33.17;100744.03;4068392;29;20143;-59
2023/12/09 03:05:43;;;;;;;7.35;2.35;;;;;;;22.94;33.06;100740.22;4068369;29;20044;-58
2023/12/09 03:07:44;;;;;;;7.07;2.50;;;;;;;22.92;32.89;100729.63;4068615;29;20055;-57
2023/12/09 03:09:47;;;;;;;6.43;2.38;;;;;;;22.94;33.14;100726.81;4068416;29;20080;-57
2023/12/09 03:11:48;;;;;;;7.82;2.80;;;;;;;22.93;32.94;100720.63;4068021;29;20160;-58
2023/12/09 03:13:50;;;;;;;7.55;2.50;;;;;;;22.94;32.89;100718.78;4068388;29;20060;-57
2023/12/09 03:15:52;;;;;;;7.15;2.35;;;;;;;22.93;33.12;100715.25;4068378;29;20443;-59
2023/12/09 03:17:53;;;;;;;7.63;2.40;;;;;;;22.91;32.96;100702.97;4068248;29;20126;-56
2023/12/09 03:19:55;;;;;;;;;;;;;;;22.90;32.81;100694.06;4051987;29;20448;-56
2023/12/09 03:21:57;;;;;;;7.40;2.50;;;;;;;22.88;32.96;100693.38;4068212;29;19959;-57
2023/12/09 03:23:59;;;;;;;6.95;2.42;;;;;;;22.90;33.38;100691.38;4068248;29;20062;-57
2023/12/09 03:26:01;;;;;;;9.77;2.88;;;;;;;22.92;32.98;100691.25;4067825;29;20079;-57
2023/12/09 03:28:02;;;;;;;7.30;2.63;;;;;;;22.95;32.94;100696.34;4068236;29;20431;-57
2023/12/09 03:30:04;;;;;;;;;;;;;;;22.95;32.97;100669.50;4068597;29;20136;-57
2023/12/09 03:32:06;;;;;;;8.93;2.53;;;;;;;22.95;33.31;100670.38;4068117;29;19930;-56
2023/12/09 03:34:08;;;;;;;6.28;2.22;;;;;;;22.96;32.95;100671.22;4068327;29;20345;-57
2023/12/09 03:36:11;;;;;;;;;;;;;;;22.95;32.90;100669.50;4068462;29;20127;-57
2023/12/09 03:38:13;;;;;;;6.50;2.70;;;;;;;22.93;33.14;100671.47;4067916;29;20013;-58
2023/12/09 03:40:14;;;;;;;9.52;2.60;;;;;;;22.93;33.08;100671.47;4067704;29;20059;-58
2023/12/09 03:42:16;;;;;;;6.78;2.45;;;;;;;22.92;32.86;100669.81;4067372;29;20059;-58
2023/12/09 03:44:17;;;;;;;6.65;2.30;;;;;;;22.91;32.88;100665.41;4067690;29;20048;-58
2023/12/09 03:46:19;;;;;;;6.15;2.40;;;;;;;22.91;32.92;100662.75;4067885;29;20056;-58
2023/12/09 03:48:21;;;;;;;7.13;2.58;;;;;;;22.92;32.92;100648.34;4068052;29;20044;-58
2023/12/09 03:50:23;;;;;;;7.32;2.70;;;;;;;22.94;32.95;100638.31;4067678;29;20416;-58
2023/12/09 03:52:25;;;;;;;7.40;2.70;;;;;;;22.95;32.97;100640.00;4067465;29;20108;-58
2023/12/09 03:54:27;;;;;;;7.38;2.40;;;;;;;22.86;33.41;100616.72;4067478;29;20472;-58
2023/12/09 03:56:28;;;;;;;7.50;2.50;;;;;;;22.96;32.95;100639.03;4051124;29;20048;-59
2023/12/09 03:58:30;;;;;;;5.75;2.50;;;;;;;22.96;33.03;100633.66;4067801;29;20083;-58
2023/12/09 04:00:32;;;;;;;6.57;2.33;;;;;;;22.96;32.70;100639.03;4052076;29;20049;-58
2023/12/09 04:02:34;;;;;;;6.15;2.20;;;;;;;22.94;32.80;100627.59;4051777;29;20238;-58
2023/12/09 04:04:39;;;;;;;6.43;2.20;;;;;;;22.93;33.08;100621.38;4052064;29;20053;-58
2023/12/09 04:06:41;;;;;;;7.72;2.40;;;;;;;22.92;32.17;100621.53;4052080;29;20052;-58
2023/12/09 04:08:43;;;;;;;5.55;2.22;;;;;;;22.90;32.75;100621.66;4052066;29;20060;-58
2023/12/09 04:10:44;;;;;;;;;;;;;;;22.91;33.18;100612.63;4052225;29;20059;-58
2023/12/09 04:12:46;;;;;;;6.88;2.25;;;;;;;22.91;33.20;100598.38;4051896;29;19930;-58
2023/12/09 04:14:48;;;;;;;;;;;;;;;22.94;32.98;100600.75;4052367;29;20067;-57
2023/12/09 04:16:49;;;;;;;8.00;2.60;;;;;;;22.93;32.90;100596.38;4051921;29;20018;-58
2023/12/09 04:18:51;;;;;;;7.55;2.60;;;;;;;22.96;33.10;100585.38;4052040;29;20112;-58
2023/12/09 04:20:52;;;;;;;;;;;;;;;22.95;32.97;100589.06;4052277;29;20045;-58
2023/12/09 04:22:54;;;;;;;6.47;2.70;;;;;;;22.89;32.75;100578.88;4051881;29;19927;-58
2023/12/09 04:24:56;;;;;;;9.30;2.78;;;;;;;22.90;32.91;100573.38;4051615;29;20497;-58
2023/12/09 04:26:57;;;;;;;7.85;2.40;;;;;;;22.91;33.26;100590.34;4051694;29;20500;-59
2023/12/09 04:28:59;;;;;;;;;;;;;;;22.90;33.15;100585.94;4052286;29;20057;-58
2023/12/09 04:31:01;;;;;;;6.65;2.58;;;;;;;22.88;32.96;100586.09;4051596;29;19951;-58
2023/12/09 04:33:02;;;;;;;7.05;2.33;;;;;;;22.91;33.23;100588.47;4051662;29;20044;-58
2023/12/09 04:35:04;;;;;;;;;;;;;;;22.92;33.11;100584.00;4052229;29;20044;-58
2023/12/09 04:37:06;;;;;;;6.45;2.33;;;;;;;22.92;32.97;100579.47;4051606;29;20450;-57
2023/12/09 04:39:08;;;;;;;;;;;;;;;22.94;32.91;100573.94;4051872;29;20048;-58
2023/12/09 04:41:10;;;;;;;;;;;;;;;22.91;33.13;100572.41;4052040;29;19977;-57
2023/12/09 04:43:11;;;;;;;6.25;2.28;;;;;;;22.92;32.97;100571.41;4051674;29;19924;-57
2023/12/09 04:45:13;;;;;;;6.50;2.47;;;;;;;22.91;33.10;100566.19;4051698;29;20037;-57
2023/12/09 04:47:15;;;;;;;7.63;2.35;;;;;;;22.93;33.10;100561.53;4051726;29;20052;-57
2023/12/09 04:49:17;;;;;;;;;;;;;;;22.92;32.76;100557.16;4052077;29;20049;-58
2023/12/09 04:51:18;;;;;;;6.13;2.20;;;;;;;22.88;33.11;100553.91;4051713;29;19947;-58
2023/12/09 04:53:20;;;;;;;5.93;2.20;;;;;;;22.90;32.83;100541.19;4052647;29;20080;-58
2023/12/09 04:55:22;;;;;;;;;;;;;;;22.91;33.08;100547.44;4055301;29;20052;-58
2023/12/09 04:57:24;;;;;;;6.65;1.85;;;;;;;22.92;32.88;100541.09;4054936;29;19923;-58
2023/12/09 04:59:25;;;;;;;6.60;2.50;;;;;;;22.95;32.97;100540.78;4061373;29;20417;-58
2023/12/09 05:01:27;;;;;;;5.70;2.17;;;;;;;22.96;32.96;100545.16;4070245;29;20051;-57
2023/12/09 05:03:29;;;;;;;;;;;;;;;22.96;32.88;100546.00;4070461;29;20080;-58
2023/12/09 05:05:31;;;;;;;5.75;2.13;;;;;;;22.94;32.65;100539.94;4070183;29;19951;-57
2023/12/09 05:07:33;;;;;;;7.07;2.10;;;;;;;22.96;33.09;100532.59;4070025;29;20055;-58
2023/12/09 05:09:34;;;;;;;7.95;2.38;;;;;;;22.96;33.07;100529.06;4070099;29;20063;-57
2023/12/09 05:11:36;;;;;;;6.97;2.30;;;;;;;22.95;33.26;100533.59;4070225;29;20048;-57
2023/12/09 05:13:38;;;;;;;;;;;;;;;22.93;33.19;100519.47;4070606;29;20071;-57
2023/12/09 05:15:39;;;;;;;6.07;2.28;;;;;;;22.91;32.95;100521.44;4070210;29;19923;-57
2023/12/09 05:17:41;;;;;;;6.78;2.35;;;;;;;22.95;32.78;100519.31;4069889;29;20052;-59
2023/12/09 05:19:43;;;;;;;;;;;;;;;22.94;33.15;100513.13;4070437;29;20357;-57
2023/12/09 05:21:46;;;;;;;;;;;;;;;22.94;33.20;100506.91;4070155;29;19970;-57
2023/12/09 05:23:47;;;;;;;7.85;2.10;;;;;;;22.95;33.06;100504.09;4070054;29;19923;-60
2023/12/09 05:25:49;;;;;;;6.30;2.20;;;;;;;22.98;33.03;100508.34;4069947;29;20054;-57
2023/12/09 05:27:51;;;;;;;5.57;2.00;;;;;;;23.00;32.94;100508.19;4070204;29;20103;-59
2023/12/09 05:29:52;;;;;;;6.53;2.17;;;;;;;22.98;33.06;100489.56;4069998;29;20071;-57
2023/12/09 05:31:54;;;;;;;7.70;2.28;;;;;;;22.93;33.20;100479.25;4069568;29;20048;-59
2023/12/09 05:33:56;;;;;;;;;;;;;;;22.95;32.94;100495.19;4038124;29;20116;-57
2023/12/09 05:35:57;;;;;;;5.90;1.83;;;;;;;22.92;33.14;100479.41;4069549;29;20018;-59
2023/12/09 05:37:59;;;;;;;7.15;2.40;;;;;;;22.93;32.98;100462.28;4069826;29;20044;-61
2023/12/09 05:40:02;;;;;;;;;;;;;;;22.94;33.17;100472.03;4070311;29;20499;-57
2023/12/09 05:42:04;;;;;;;5.75;1.80;;;;;;;22.86;33.22;100456.66;4069858;29;19951;-59
2023/12/09 05:44:06;;;;;;;6.63;1.85;;;;;;;22.97;33.11;100455.69;4069746;29;20067;-59
2023/12/09 05:46:08;;;;;;;6.75;2.03;;;;;;;23.00;32.73;100451.88;4069917;29;20144;-59
2023/12/09 05:48:09;;;;;;;6.28;1.80;;;;;;;22.99;32.90;100448.34;4069906;29;20143;-59
2023/12/09 05:50:11;;;;;;;6.53;1.75;;;;;;;22.97;33.00;100443.09;4069664;29;20530;-59
2023/12/09 05:52:13;;;;;;;;;;;;;;;22.99;32.70;100445.66;4069660;29;20052;-57
2023/12/09 05:54:14;;;;;;;6.20;1.80;;;;;;;22.97;33.00;100431.53;4069437;29;19945;-59
2023/12/09 05:56:16;;;;;;;6.03;2.08;;;;;;;22.97;33.24;100436.91;4069667;29;20122;-59
2023/12/09 05:58:18;;;;;;;5.93;2.00;;;;;;;22.94;33.02;100421.09;4069595;29;20052;-59
2023/12/09 06:00:20;;;;;;;6.10;2.03;;;;;;;22.95;33.24;100423.66;4052595;29;20057;-59
2023/12/09 06:02:22;;;;;;;6.72;2.08;;;;;;;22.96;33.34;100416.44;4052496;29;20056;-59
2023/12/09 06:04:23;;;;;;;7.07;2.47;;;;;;;22.94;32.98;100405.84;4068609;29;20048;-59
2023/12/09 06:06:25;;;;;;;6.85;2.08;;;;;;;22.96;33.15;100406.53;4068968;29;20052;-58
2023/12/09 06:08:27;;;;;;;7.88;1.95;;;;;;;22.99;32.99;100402.75;4069443;29;20055;-58
2023/12/09 06:10:28;;;;;;;7.13;2.20;;;;;;;23.00;33.18;100406.28;4069655;29;20048;-58
2023/12/09 06:12:30;;;;;;;5.75;1.70;;;;;;;23.00;32.95;100395.53;4069064;29;20056;-59
2023/12/09 06:14:32;;;;;;;6.28;1.63;;;;;;;23.01;33.07;100392.72;4069445;29;20111;-59
2023/12/09 06:16:34;;;;;;;7.20;1.98;;;;;;;23.00;33.65;100392.84;4069347;29;20467;-59
2023/12/09 06:18:35;;;;;;;4.88;1.52;;;;;;;22.96;33.01;100377.03;4069295;29;20132;-58
2023/12/09 06:20:37;;;;;;;4.85;1.48;;;;;;;22.94;33.07;100376.34;4052089;29;20052;-59
2023/12/09 06:22:38;;;;;;;5.15;1.70;;;;;;;22.93;33.16;100365.75;4069232;29;20092;-59
2023/12/09 06:24:40;;;;;;;4.35;1.60;;;;;;;22.95;33.33;100361.09;4069217;29;20044;-59
2023/12/09 06:26:43;;;;;;;;;;;;;;;22.96;33.17;100366.31;4069547;29;20052;-58
2023/12/09 06:28:45;;;;;;;5.43;1.58;;;;;;;22.95;32.91;100358.41;4068972;29;20022;-59
2023/12/09 06:30:46;;;;;;;5.70;1.73;;;;;;;22.98;33.29;100358.16;4069037;29;20045;-59
2023/12/09 06:32:48;;;;;;;5.22;1.75;;;;;;;23.00;32.88;100352.63;4069096;29;20172;-59
2023/12/09 06:34:49;;;;;;;;;;;;;;;23.00;32.92;100344.59;4069197;29;20072;-59
2023/12/09 06:36:51;;;;;;;5.88;1.60;;;;;;;22.97;33.30;100338.50;4069069;29;19986;-59
2023/12/09 06:38:53;;;;;;;5.20;1.55;;;;;;;22.98;33.07;100336.69;4069030;29;20127;-58
2023/12/09 06:40:55;;;;;;;5.65;1.77;;;;;;;22.97;33.08;100329.63;4068919;29;20111;-59
2023/12/09 06:42:56;;;;;;;6.68;1.90;;;;;;;22.96;33.25;100331.44;4068715;29;20427;-59
2023/12/09 06:44:58;;;;;;;;;;;;;;;22.94;33.25;100322.72;4052619;29;20500;-59
2023/12/09 06:47:00;;;;;;;5.85;1.77;;;;;;;22.92;33.33;100321.19;4068824;29;20350;-59
2023/12/09 06:49:02;;;;;;;5.43;1.70;;;;;;;22.96;33.39;100309.16;4068540;29;20064;-59
2023/12/09 06:51:14;;;;;;;7.93;1.60;;;;;;;22.97;33.30;100308.19;4068795;29;20104;-59
2023/12/09 06:53:15;;;;;;;4.35;1.75;;;;;;;22.98;33.21;100304.50;4068788;29;20086;-58
2023/12/09 06:55:17;;;;;;;5.97;1.52;;;;;;;22.99;33.31;100303.53;4068964;29;20423;-58
2023/12/09 06:57:19;;;;;;;4.60;1.50;;;;;;;23.01;33.44;100306.06;4068730;29;20048;-58
2023/12/09 06:59:21;;;;;;;5.13;1.33;;;;;;;23.03;33.86;100317.50;4068404;29;20052;-58
2023/12/09 07:01:24;;;;;;;3.95;1.45;;;;;;;22.99;33.38;100298.16;4068652;29;20044;-59
2023/12/09 07:03:25;;;;;;;4.78;1.58;;;;;;;22.98;33.45;100294.63;4068292;29;20044;-58
2023/12/09 07:05:27;;;;;;;;;;;;;;;22.96;33.48;100291.22;4069143;29;20048;-59
2023/12/09 07:07:29;;;;;;;3.78;1.38;;;;;;;22.93;33.21;100288.84;4068382;29;19923;-58
2023/12/09 07:09:31;;;;;;;4.68;1.75;;;;;;;22.95;33.51;100288.69;4036247;29;20076;-59
2023/12/09 07:11:32;;;;;;;4.65;1.38;;;;;;;22.95;33.55;100292.25;4068364;29;20082;-59
2023/12/09 07:13:34;;;;;;;;;;;;;;;22.96;33.30;100272.44;4068858;29;20060;-59
2023/12/09 07:15:35;;;;;;;4.47;1.27;;;;;;;22.97;33.17;100270.63;4068455;29;20013;-59
2023/12/09 07:17:37;;;;;;;4.78;1.50;;;;;;;22.99;33.20;100260.63;4068140;29;20740;-59
2023/12/09 07:19:39;;;;;;;5.15;1.40;;;;;;;23.01;33.38;100263.97;4068208;29;20055;-59
2023/12/09 07:21:41;;;;;;;4.18;1.17;;;;;;;22.99;33.21;100239.16;4068207;29;20059;-59
2023/12/09 07:23:43;;;;;;;6.25;1.45;;;;;;;23.00;33.44;100238.13;4068220;29;20052;-59
2023/12/09 07:25:45;;;;;;;3.80;1.20;;;;;;;23.00;33.20;100240.81;4068097;29;20048;-60
2023/12/09 07:27:46;;;;;;;3.65;1.15;;;;;;;22.99;33.20;100241.84;4068138;29;20048;-60
2023/12/09 07:29:49;;;;;;;4.05;1.23;;;;;;;22.97;33.52;100231.25;4068088;29;20053;-60
2023/12/09 07:31:50;;;;;;;3.63;1.30;;;;;;;22.91;33.18;100220.28;4067843;29;20079;-59
2023/12/09 07:33:53;;;;;;;5.65;1.30;;;;;;;22.96;33.42;100240.28;4067900;29;20132;-59
2023/12/09 07:35:54;;;;;;;3.90;1.33;;;;;;;23.00;33.54;100240.00;4068002;29;20048;-59
2023/12/09 07:37:56;;;;;;;;;;;;;;;23.00;33.39;100232.78;4068416;29;20130;-59
2023/12/09 07:39:57;;;;;;;4.17;1.33;;;;;;;22.96;33.21;100226.88;4067995;29;20357;-59
2023/12/09 07:41:59;;;;;;;3.90;1.35;;;;;;;23.03;33.53;100237.03;4068136;29;20293;-59
2023/12/09 07:44:01;;;;;;;;;;;;;;;23.03;33.43;100218.25;4068456;29;20055;-59
2023/12/09 07:46:03;;;;;;;3.75;1.40;;;;;;;23.01;33.59;100196.94;4067696;29;19937;-60
2023/12/09 07:48:05;;;;;;;;;;;;;;;23.00;33.43;100195.22;4068117;29;20056;-59
2023/12/09 07:50:07;;;;;;;4.25;1.20;;;;;;;22.97;33.42;100188.31;4067939;29;19930;-59
2023/12/09 07:52:08;;;;;;;;;;;;;;;22.96;33.40;100178.59;4068154;29;20048;-59
2023/12/09 07:54:10;;;;;;;4.22;1.20;;;;;;;22.95;33.70;100173.38;4067886;29;19930;-59
2023/12/09 07:56:11;;;;;;;4.47;1.45;;;;;;;22.97;33.62;100179.44;4067764;29;20076;-59
2023/12/09 07:58:13;;;;;;;3.72;1.40;;;;;;;22.97;33.69;100166.03;4067810;29;20115;-59
2023/12/09 08:00:15;;;;;;;5.63;1.40;;;;;;;23.00;33.45;100159.53;4067544;29;20142;-59
2023/12/09 08:02:16;;;;;;;;;;;;;;;23.00;33.60;100154.16;4067625;29;20052;-58
2023/12/09 08:04:18;;;;;;;3.75;1.42;;;;;;;22.99;33.56;100139.94;4067670;29;19979;-59
2023/12/09 08:06:20;;;;;;;;;;;;;;;23.01;33.51;100119.16;4067994;29;20044;-58
2023/12/09 08:08:22;;;;;;;3.72;1.30;;;;;;;23.01;33.73;100115.63;4067653;29;20018;-59
2023/12/09 08:10:23;;;;;;;4.72;1.60;;;;;;;23.00;33.44;100124.66;4067523;29;20079;-59
2023/12/09 08:12:25;;;;;;;4.40;1.40;;;;;;;23.00;33.45;100117.47;4067480;29;20048;-59
2023/12/09 08:14:27;;;;;;;4.32;1.30;;;;;;;22.96;33.81;100081.22;4067460;29;20486;-59
2023/12/09 08:16:28;;;;;;;2.95;1.05;;;;;;;22.94;33.82;100076.03;4067204;29;20051;-59
2023/12/09 08:18:30;;;;;;;3.05;1.08;;;;;;;22.98;33.86;100071.19;4067273;29;20443;-58
2023/12/09 08:20:34;;;;;;;4.28;1.10;;;;;;;22.96;33.89;100060.59;4067505;29;20094;-58
2023/12/09 08:22:38;;;;;;;3.58;1.10;;;;;;;23.01;33.55;100067.38;4067439;29;20044;-58
2023/12/09 08:24:40;;;;;;;4.40;1.25;;;;;;;23.02;33.80;100061.84;4067356;29;20055;-58
2023/12/09 08:26:42;;;;;;;;;;;;;;;23.03;33.53;100051.97;4067702;29;20123;-59
2023/12/09 08:28:43;;;;;;;3.03;1.15;;;;;;;23.00;34.29;100042.38;4067097;29;19934;-59
2023/12/09 08:30:46;;;;;;;3.60;1.30;;;;;;;23.03;33.78;100011.75;4066971;29;20044;-59
2023/12/09 08:32:48;;;;;;;3.50;1.10;;;;;;;23.01;33.63;99982.38;4067335;29;20416;-59
2023/12/09 08:34:50;;;;;;;2.97;1.10;;;;;;;22.98;33.87;99983.53;4067376;29;20462;-59
2023/12/09 08:37:07;;;;;;;3.92;1.17;;;;;;;22.97;33.68;99979.16;4050497;29;20064;-59
2023/12/09 08:39:09;;;;;;;3.88;1.15;;;;;;;22.96;33.68;99982.00;4067240;29;20048;-59
2023/12/09 08:41:10;;;;;;;;;;;;;;;22.96;33.95;99973.97;4067716;29;20165;-59
2023/12/09 08:43:12;;;;;;;2.80;1.05;;;;;;;22.95;33.95;99981.16;4067387;29;19954;-59
2023/12/09 08:45:17;;;;;;;3.72;1.17;;;;;;;22.98;34.12;99961.25;4066972;29;20059;-59
2023/12/09 08:47:19;;;;;;;3.47;1.10;;;;;;;22.98;33.73;99950.53;4067265;29;20048;-58
2023/12/09 08:49:20;;;;;;;2.67;0.80;;;;;;;23.00;33.66;99937.78;4067198;29;20075;-58
2023/12/09 08:51:23;;;;;;;4.20;1.02;;;;;;;22.99;33.73;99930.75;4067388;29;20128;-57
2023/12/09 08:53:25;;;;;;;3.35;1.05;;;;;;;23.01;33.75;99926.06;4067053;29;20119;-58
2023/12/09 08:55:26;;;;;;;3.88;1.20;;;;;;;23.00;33.88;99916.31;4066936;29;20508;-60
2023/12/09 08:57:28;;;;;;;2.63;0.98;;;;;;;22.98;33.89;99894.22;4055366;29;20048;-57
2023/12/09 08:59:29;;;;;;;3.53;1.10;;;;;;;22.96;33.69;99867.53;4066524;29;20150;-58
2023/12/09 09:01:31;;;;;;;4.10;1.30;;;;;;;22.93;34.08;99873.22;4064404;29;20049;-58
2023/12/09 09:03:33;;;;;;;3.15;1.17;;;;;;;22.93;34.18;99870.53;4066299;29;20433;-57
2023/12/09 09:05:34;;;;;;;;;;;;;;;22.93;34.55;99864.31;4065223;29;20059;-57
2023/12/09 09:07:40;;;;;;;5.70;1.30;;;;;;;22.91;35.50;99839.53;4067036;29;20365;-58
2023/12/09 09:09:41;;;;;;;6.97;1.63;;;;;;;22.90;35.27;99816.38;4065429;29;20076;-58
2023/12/09 09:11:43;;;;;;;10.10;1.55;;;;;;;22.90;35.11;99857.44;4066708;29;20560;-57
2023/12/09 09:13:44;;;;;;;45.13;4.65;;;;;;;22.89;35.42;99849.56;4064809;29;20715;-58
2023/12/09 09:15:46;;;;;;;59.42;4.57;;;;;;;22.85;35.79;99846.34;4064678;29;20064;-59
2023/12/09 09:17:48;;;;;;;29.15;2.92;;;;;;;22.84;35.85;99841.97;4067439;29;20048;-57
2023/12/09 09:19:50;;;;;;;26.55;3.65;;;;;;;22.79;35.73;99847.78;4062885;29;20111;-60
2023/12/09 09:21:52;;;;;;;19.13;3.25;;;;;;;22.78;35.81;99837.22;4065658;29;20055;-60
2023/12/09 09:23:54;;;;;;;16.98;2.88;;;;;;;22.80;36.05;99854.00;4066825;29;20063;-60
2023/12/09 09:25:56;;;;;;;12.55;3.13;;;;;;;22.80;36.28;99828.03;4067779;29;20067;-59
2023/12/09 09:27:57;;;;;;;8.80;2.30;;;;;;;22.83;36.23;99832.25;4036988;29;20068;-60
2023/12/09 09:29:59;;;;;;;;;;;;;;;22.83;36.57;99850.19;4066097;29;20048;-59
2023/12/09 09:32:01;;;;;;;8.90;2.22;;;;;;;22.81;36.48;99847.66;4073224;29;19977;-59
2023/12/09 09:34:03;;;;;;;6.57;2.30;;;;;;;22.82;36.70;99838.63;4066248;29;20415;-59
2023/12/09 09:36:05;;;;;;;11.43;2.13;;;;;;;22.83;36.56;99834.91;4063099;29;20510;-59
2023/12/09 09:38:07;;;;;;;7.80;2.05;;;;;;;22.80;36.96;99838.75;4073799;29;20062;-64